Portada
METAR-TAF:

METAR-TAF

Aeropuertos :

Sfax, Túnez

latitud: 34-43N, longitud: 010-41E, altitud: 21 m

Observación

El informe se hizo hace 1 hora y 7 minutos, a las 11:00 UTC
Viento 15 kt del norte-noreste, variando entre norte y este-noreste
Temperatura 29°C
Humedad 52%
Presión 1008 hPa
Visibilidad 10 km o más
Nubes dispersas a una altura de 3000 ft

METAR: DTTX 191100Z 03015KT 360V060 9999 SCT030 29/18 Q1008

Hora: 13:07 (12:07 UTC)

Pronóstico

El informe se hizo hace 1 hora y 7 minutos, a las 11:00 UTC
Pronóstico válido del 19 a las 12 UTC al 20 a las 12 UTC
Viento 15 kt del norte-noreste
Visibilidad 10 km o más
Nubes dispersas a una altura de 3000 ft
Evolucionando progresivamente
del 20 a las 07 UTC al 20 a las 09 UTC
Viento 3 kt con dirección variable
Evolucionando progresivamente
del 20 a las 10 UTC al 20 a las 12 UTC
Viento 10 kt del sur-sureste

TAF: DTTX 191100Z 1912/2012 03015KT 9999 SCT030 BECMG 2007/2009 VRB03KT BECMG 2010/2012 15010KT

Observaciones y pronósticos meteorológicos de más de 4000 aeropuertos (mensajes METAR y TAF).

Los puntos amarillos y rojos representan las estaciones disponibles.

Ponga el ratón en el punto deseado para ver el nombre de la estación.

Haga clic para ver las observaciones y los pronósticos meteorológicos.

Para cambiar el mapa : haga clic en los botones verdes con una cruz de color negro para hacer un zoom, en el botón verde con un guión para alejar o en las flechas verdes para mapas adyacentes.


METAR-TAF: